Time;durP1;ratioP1;P1;durP2;ratioP2;P2;SDS_P1;SDS_P2;PMS_P1;PMS_P2;Temp;Humidity;BMP_temperature;BMP_pressure;BME280_temperature;BME280_humidity;BME280_pressure;Samples;Min_cycle;Max_cycle;Signal;HPM_P1;HPM_P2
2023/06/03 00:01:56;;;;;;;5.10;1.83;;;;;;;13.30;54.06;99370.19;4981855;28;20081;-81
2023/06/03 00:04:29;;;;;;;2.53;1.45;;;;;;;13.28;54.09;99375.00;4978128;28;20030;-81
2023/06/03 00:06:55;;;;;;;3.47;1.65;;;;;;;13.31;54.31;99377.19;4978858;28;20049;-81
2023/06/03 00:09:20;;;;;;;5.35;1.75;;;;;;;13.25;54.28;99377.38;4990280;28;20034;-81
2023/06/03 00:11:49;;;;;;;1.95;1.50;;;;;;;13.14;54.52;99370.31;4988020;28;20105;-82
2023/06/03 00:14:15;;;;;;;3.88;1.70;;;;;;;13.26;54.00;99379.81;4990959;28;20030;-81
2023/06/03 00:16:45;;;;;;;2.83;1.50;;;;;;;13.01;54.54;99392.91;4993237;28;20034;-81
2023/06/03 00:19:14;;;;;;;2.65;1.52;;;;;;;13.05;54.65;99394.06;4974242;28;20037;-81
2023/06/03 00:21:50;;;;;;;1.77;1.45;;;;;;;12.99;54.46;99381.63;4989516;28;20054;-81
2023/06/03 00:24:16;;;;;;;;;;;;;;;12.98;54.54;99393.41;4979673;28;20129;-81
2023/06/03 00:26:41;;;;;;;5.35;1.52;;;;;;;12.77;55.31;99395.03;4991247;28;19914;-81
2023/06/03 00:29:07;;;;;;;2.17;1.38;;;;;;;11.89;56.30;99392.44;4986942;28;20121;-81
2023/06/03 00:31:33;;;;;;;1.75;1.15;;;;;;;12.83;54.75;99382.50;4963197;28;20030;-82
2023/06/03 00:33:58;;;;;;;5.28;2.00;;;;;;;11.32;55.15;99390.88;4986642;28;20454;-81
2023/06/03 00:36:24;;;;;;;1.27;1.17;;;;;;;11.53;58.23;99394.72;4993947;28;20042;-81
2023/06/03 00:38:49;;;;;;;1.83;1.20;;;;;;;10.75;53.77;99384.69;4993290;28;20098;-81
2023/06/03 00:41:14;;;;;;;11.27;1.60;;;;;;;10.76;53.67;99388.19;4996296;28;20121;-81
2023/06/03 00:43:40;;;;;;;1.88;1.38;;;;;;;9.87;53.72;99386.72;4992206;28;20041;-81
2023/06/03 00:46:08;;;;;;;4.43;1.48;;;;;;;9.94;54.62;99391.94;4990588;28;20042;-81
2023/06/03 00:48:34;;;;;;;2.83;1.42;;;;;;;11.02;52.78;99372.44;4991656;28;20437;-81
2023/06/03 00:50:59;;;;;;;3.33;1.70;;;;;;;10.88;54.60;99379.09;4994620;28;20072;-80
2023/06/03 00:53:25;;;;;;;2.15;1.30;;;;;;;10.82;52.97;99360.53;4988191;28;20034;-80
2023/06/03 00:55:51;;;;;;;6.20;1.42;;;;;;;10.15;54.74;99380.72;4976818;28;20494;-80
2023/06/03 00:58:16;;;;;;;4.43;1.42;;;;;;;10.24;54.37;99379.34;4994418;28;20045;-80
2023/06/03 01:00:41;;;;;;;5.80;1.83;;;;;;;10.28;54.19;99375.97;4958239;28;20046;-81
2023/06/03 01:03:13;;;;;;;3.83;1.75;;;;;;;10.60;57.04;99372.88;5001499;28;20036;-81
2023/06/03 01:05:40;;;;;;;5.43;1.60;;;;;;;10.44;53.82;99377.13;4986767;28;20449;-81
2023/06/03 01:08:27;;;;;;;1.60;1.25;;;;;;;10.85;56.53;99376.09;4995109;28;20096;-80
2023/06/03 01:11:12;;;;;;;3.05;1.45;;;;;;;10.03;53.75;99370.03;4991261;28;20097;-80
2023/06/03 01:13:49;;;;;;;3.38;1.02;;;;;;;10.60;57.09;99381.72;4986150;28;20045;-80
2023/06/03 01:16:17;;;;;;;1.77;1.40;;;;;;;10.70;53.94;99376.59;4992627;28;20034;-81
2023/06/03 01:18:45;;;;;;;1.30;1.20;;;;;;;10.12;55.18;99382.00;4992403;28;20072;-80
2023/06/03 01:21:13;;;;;;;2.15;1.25;;;;;;;11.30;56.71;99377.75;4969001;28;20097;-81
2023/06/03 01:23:43;;;;;;;3.92;1.67;;;;;;;11.28;52.59;99387.06;4979184;28;20176;-81
2023/06/03 01:26:11;;;;;;;3.70;1.20;;;;;;;11.13;56.59;99389.47;4992149;28;20503;-81
2023/06/03 01:28:37;;;;;;;1.42;1.17;;;;;;;12.15;54.64;99380.25;4997728;28;20097;-81
2023/06/03 01:31:04;;;;;;;2.13;1.50;;;;;;;12.46;53.49;99394.88;4995209;28;20022;-81
2023/06/03 01:33:32;;;;;;;4.20;1.35;;;;;;;12.59;52.95;99389.97;4994882;28;20025;-81
2023/06/03 01:36:00;;;;;;;3.47;1.30;;;;;;;12.69;52.71;99387.41;4973120;28;20034;-81
2023/06/03 01:38:26;;;;;;;2.28;1.33;;;;;;;12.49;53.16;99389.03;4984666;28;20026;-81
2023/06/03 01:40:52;;;;;;;3.45;1.52;;;;;;;12.61;52.86;99397.75;4993844;28;20474;-81
2023/06/03 01:43:18;;;;;;;1.48;1.23;;;;;;;12.58;53.10;99393.69;4992307;28;20022;-81
2023/06/03 01:45:44;;;;;;;1.17;1.08;;;;;;;12.54;53.98;99391.75;4988749;28;20500;-81
2023/06/03 01:48:09;;;;;;;1.85;1.50;;;;;;;12.51;53.44;99403.00;4989347;28;20030;-81
2023/06/03 01:50:39;;;;;;;3.75;1.20;;;;;;;12.49;53.90;99397.06;4989287;28;20502;-81
2023/06/03 01:53:05;;;;;;;3.25;1.50;;;;;;;12.56;53.55;99400.34;4975847;28;20109;-81
2023/06/03 01:55:30;;;;;;;1.52;1.10;;;;;;;12.46;53.67;99386.84;4966290;28;20165;-81
2023/06/03 01:57:55;;;;;;;7.05;2.58;;;;;;;10.85;54.93;99402.78;4974281;28;20038;-81
2023/06/03 02:00:21;;;;;;;2.00;1.20;;;;;;;10.89;56.21;99407.44;4996381;28;20706;-81
2023/06/03 02:02:47;;;;;;;2.25;1.45;;;;;;;9.55;57.71;99402.19;4992060;28;20034;-81
2023/06/03 02:05:12;;;;;;;2.00;1.15;;;;;;;11.25;55.14;99395.53;4951718;28;20397;-81
2023/06/03 02:07:37;;;;;;;2.47;1.52;;;;;;;10.54;55.00;99385.34;4975961;28;20081;-81
2023/06/03 02:10:03;;;;;;;3.60;1.60;;;;;;;11.33;55.44;99392.50;4993809;28;20080;-81
2023/06/03 02:12:28;;;;;;;3.03;1.20;;;;;;;11.72;54.98;99410.34;4975367;28;20084;-81
2023/06/03 02:14:55;;;;;;;4.28;1.70;;;;;;;11.78;53.36;99401.34;4991111;28;20045;-81
2023/06/03 02:17:26;;;;;;;6.55;1.67;;;;;;;10.98;55.60;99402.53;4964716;28;20046;-81
2023/06/03 02:19:55;;;;;;;1.48;1.10;;;;;;;11.17;55.45;99406.63;4992048;28;20081;-81
2023/06/03 02:22:21;;;;;;;3.47;1.33;;;;;;;11.32;55.53;99404.25;4988826;28;20038;-81
2023/06/03 02:24:47;;;;;;;4.47;2.08;;;;;;;11.14;53.15;99402.56;4974932;28;20057;-81
2023/06/03 02:27:19;;;;;;;2.60;1.65;;;;;;;10.05;54.25;99412.44;4988639;28;20022;-81
2023/06/03 02:29:50;;;;;;;2.55;1.63;;;;;;;10.04;57.33;99406.31;4997399;28;20037;-81
2023/06/03 02:32:16;;;;;;;2.90;1.58;;;;;;;10.19;55.73;99412.03;4985219;28;20112;-81
2023/06/03 02:34:43;;;;;;;1.60;1.50;;;;;;;11.06;56.32;99407.47;4988850;28;20161;-80
2023/06/03 02:37:10;;;;;;;2.90;1.63;;;;;;;11.43;55.63;99407.91;4989349;28;20053;-80
2023/06/03 02:39:36;;;;;;;2.78;1.60;;;;;;;11.77;54.11;99397.03;4972444;28;20034;-81
2023/06/03 02:42:02;;;;;;;2.25;1.48;;;;;;;11.94;54.19;99413.94;4991277;28;20025;-80
2023/06/03 02:44:27;;;;;;;3.00;1.52;;;;;;;11.99;54.31;99395.25;4989571;28;20500;-81
2023/06/03 02:46:53;;;;;;;7.45;1.92;;;;;;;10.60;57.29;99407.59;4989732;28;20026;-81
2023/06/03 02:49:18;;;;;;;7.68;1.95;;;;;;;11.47;54.81;99406.38;4989449;28;20065;-81
2023/06/03 02:51:44;;;;;;;2.85;1.42;;;;;;;11.52;55.06;99406.47;4992269;28;20030;-81
2023/06/03 02:54:09;;;;;;;3.10;1.90;;;;;;;11.74;54.64;99402.88;4990194;28;20026;-81
2023/06/03 02:56:35;;;;;;;3.90;1.70;;;;;;;11.98;54.13;99408.88;4969050;28;20367;-81
2023/06/03 02:59:00;;;;;;;2.28;1.67;;;;;;;11.88;54.31;99409.53;4987149;28;20042;-81
2023/06/03 03:01:27;;;;;;;1.67;1.58;;;;;;;11.98;54.13;99404.34;4987022;28;20474;-81
2023/06/03 03:03:53;;;;;;;2.00;1.80;;;;;;;11.64;55.33;99408.00;4989273;28;20402;-81
2023/06/03 03:06:21;;;;;;;5.93;1.90;;;;;;;11.86;54.24;99405.50;4990886;28;20037;-81
2023/06/03 03:08:47;;;;;;;3.85;2.15;;;;;;;11.89;54.33;99419.19;4972618;28;20398;-81
2023/06/03 03:11:14;;;;;;;3.00;1.40;;;;;;;11.89;54.00;99418.38;4984598;28;20058;-80
2023/06/03 03:13:41;;;;;;;2.85;1.58;;;;;;;11.94;54.08;99419.28;4968641;28;20031;-81
2023/06/03 03:16:06;;;;;;;2.30;1.73;;;;;;;11.99;54.66;99422.00;4985102;28;20433;-81
2023/06/03 03:18:32;;;;;;;3.33;1.83;;;;;;;11.82;54.30;99409.69;4979634;28;20104;-81
2023/06/03 03:20:57;;;;;;;2.05;1.70;;;;;;;11.75;54.39;99414.41;4986138;28;20060;-81
2023/06/03 03:23:23;;;;;;;2.95;1.98;;;;;;;11.83;54.44;99417.50;4987842;28;20026;-81
2023/06/03 03:25:49;;;;;;;4.35;1.98;;;;;;;11.73;54.83;99414.63;4990103;28;20117;-81
2023/06/03 03:28:14;;;;;;;2.85;1.88;;;;;;;11.64;54.55;99412.56;4991478;28;20109;-80
2023/06/03 03:30:40;;;;;;;2.60;1.92;;;;;;;11.64;55.27;99418.72;4992468;28;20030;-80
2023/06/03 03:33:06;;;;;;;2.58;1.92;;;;;;;11.68;55.25;99413.75;4988470;28;20413;-80
2023/06/03 03:35:32;;;;;;;1.85;1.60;;;;;;;11.66;55.32;99419.31;4986785;28;20034;-80
2023/06/03 03:38:02;;;;;;;3.72;1.75;;;;;;;11.68;55.51;99422.59;4991195;28;20057;-80
2023/06/03 03:40:27;;;;;;;5.88;2.03;;;;;;;11.65;55.57;99419.53;4992379;28;20031;-80
2023/06/03 03:42:54;;;;;;;4.45;1.55;;;;;;;11.47;55.89;99407.19;4970809;28;20501;-80
2023/06/03 03:45:22;;;;;;;8.45;1.90;;;;;;;11.54;55.69;99410.53;4951701;28;20035;-81
2023/06/03 03:47:59;;;;;;;3.10;1.60;;;;;;;11.55;55.87;99409.50;4967021;28;20081;-80
2023/06/03 03:50:28;;;;;;;1.48;1.38;;;;;;;11.25;56.57;99408.91;4985106;28;20490;-81
2023/06/03 03:52:55;;;;;;;3.22;1.67;;;;;;;11.40;56.02;99406.50;4993679;28;20092;-81
2023/06/03 03:55:21;;;;;;;3.92;1.60;;;;;;;11.52;56.30;99409.97;4953627;28;20034;-80
2023/06/03 03:57:46;;;;;;;5.72;1.75;;;;;;;11.63;55.78;99416.28;4989418;28;20033;-80
2023/06/03 04:00:12;;;;;;;2.95;1.58;;;;;;;11.31;56.29;99416.78;4999685;28;20037;-80
2023/06/03 04:02:41;;;;;;;2.47;1.70;;;;;;;11.56;56.03;99416.44;4997314;28;20045;-80
2023/06/03 04:05:08;;;;;;;2.90;1.98;;;;;;;11.66;55.68;99426.50;4987755;28;20406;-81
2023/06/03 04:07:38;;;;;;;2.97;1.95;;;;;;;11.68;55.81;99427.94;4991038;28;20034;-80
2023/06/03 04:10:09;;;;;;;2.65;1.60;;;;;;;11.74;56.08;99421.59;4992640;28;20037;-81
2023/06/03 04:12:36;;;;;;;1.52;1.30;;;;;;;11.76;55.90;99422.19;4975708;28;20471;-81
2023/06/03 04:15:02;;;;;;;2.35;1.90;;;;;;;11.78;56.36;99420.06;4991604;28;20089;-81
2023/06/03 04:17:30;;;;;;;2.97;1.42;;;;;;;11.82;56.35;99418.53;4993673;28;20140;-81
2023/06/03 04:19:56;;;;;;;2.70;1.73;;;;;;;11.88;56.06;99406.06;4995305;28;20502;-81
2023/06/03 04:22:24;;;;;;;2.95;1.65;;;;;;;12.06;56.00;99421.84;4992004;28;20466;-80
2023/06/03 04:25:01;;;;;;;4.68;1.67;;;;;;;12.09;56.59;99417.88;4978225;28;20124;-80
2023/06/03 04:27:27;;;;;;;2.30;1.58;;;;;;;12.16;55.92;99427.38;4994347;28;20422;-80
2023/06/03 04:29:52;;;;;;;4.03;1.48;;;;;;;12.03;58.17;99433.84;4987191;28;20093;-79
2023/06/03 04:32:18;;;;;;;1.90;1.55;;;;;;;12.46;55.93;99432.38;4985307;28;20032;-79
2023/06/03 04:34:54;;;;;;;2.30;1.80;;;;;;;12.56;55.56;99436.00;4986361;28;20594;-79
2023/06/03 04:37:21;;;;;;;5.05;1.50;;;;;;;12.61;55.48;99425.34;4992141;28;20042;-80
2023/06/03 04:39:48;;;;;;;3.40;1.80;;;;;;;12.78;54.89;99438.69;4976134;28;20482;-80
2023/06/03 04:42:15;;;;;;;4.22;1.70;;;;;;;12.65;55.69;99431.84;4990505;28;20045;-80
2023/06/03 04:44:42;;;;;;;4.78;2.05;;;;;;;12.66;55.27;99432.66;4988951;28;20121;-80
2023/06/03 04:47:11;;;;;;;4.05;2.22;;;;;;;12.30;55.26;99444.72;4993471;28;20046;-80
2023/06/03 04:49:40;;;;;;;3.55;1.60;;;;;;;12.57;55.80;99431.44;5001082;28;20038;-80
2023/06/03 04:52:10;;;;;;;3.63;1.50;;;;;;;12.88;54.79;99441.53;4971553;28;20121;-80
2023/06/03 04:54:37;;;;;;;4.13;1.60;;;;;;;13.37;53.79;99439.69;4991184;28;20014;-80
2023/06/03 04:57:02;;;;;;;3.70;1.58;;;;;;;12.79;54.71;99437.66;4999978;28;20022;-80
2023/06/03 04:59:28;;;;;;;3.38;1.92;;;;;;;12.69;56.23;99438.31;4990265;28;20036;-81
2023/06/03 05:01:53;;;;;;;2.22;1.92;;;;;;;13.22;53.97;99444.91;4988151;28;20146;-81
2023/06/03 05:04:19;;;;;;;3.80;1.92;;;;;;;12.73;54.13;99431.41;4990633;28;20027;-80
2023/06/03 05:06:46;;;;;;;6.70;1.80;;;;;;;13.00;53.71;99444.88;4989081;28;20036;-81
2023/06/03 05:09:13;;;;;;;2.45;1.73;;;;;;;12.30;53.19;99430.50;4976413;28;20089;-81
2023/06/03 05:11:38;;;;;;;6.53;1.50;;;;;;;12.46;54.75;99438.53;4989684;28;20053;-80
2023/06/03 05:14:04;;;;;;;2.05;1.85;;;;;;;11.94;55.27;99438.00;4987905;28;20022;-80
2023/06/03 05:16:29;;;;;;;3.45;2.30;;;;;;;11.78;53.16;99440.66;4988302;28;20057;-80
2023/06/03 05:18:55;;;;;;;3.45;1.73;;;;;;;12.55;55.14;99436.25;4958671;28;20049;-80
2023/06/03 05:21:20;;;;;;;2.15;1.73;;;;;;;12.04;54.13;99442.69;4991568;28;20038;-81
2023/06/03 05:23:46;;;;;;;4.25;1.75;;;;;;;11.58;53.48;99425.03;4988523;28;20040;-80
2023/06/03 05:26:12;;;;;;;7.75;1.98;;;;;;;11.85;54.86;99433.28;4991175;28;20088;-80
2023/06/03 05:28:37;;;;;;;5.80;2.03;;;;;;;11.61;54.82;99429.91;4975939;28;20038;-80
2023/06/03 05:31:02;;;;;;;3.00;1.77;;;;;;;11.42;54.31;99425.81;4956141;28;20066;-80
2023/06/03 05:33:29;;;;;;;2.72;2.50;;;;;;;11.02;55.86;99430.38;4968446;28;20508;-81
2023/06/03 05:35:55;;;;;;;2.47;1.90;;;;;;;11.37;56.07;99423.03;4992411;28;20026;-80
2023/06/03 05:38:21;;;;;;;3.28;1.92;;;;;;;11.29;54.49;99418.09;4995698;28;20029;-81
2023/06/03 05:40:50;;;;;;;3.42;2.15;;;;;;;11.88;55.79;99430.94;4985222;28;20037;-81
2023/06/03 05:43:16;;;;;;;3.83;2.20;;;;;;;11.89;54.76;99435.22;4989691;28;20402;-80
2023/06/03 05:45:42;;;;;;;2.47;1.70;;;;;;;11.46;53.43;99426.16;4992256;28;20034;-81
2023/06/03 05:48:07;;;;;;;4.10;2.17;;;;;;;11.55;54.19;99428.19;4987238;28;20030;-81
2023/06/03 05:50:38;;;;;;;11.80;2.15;;;;;;;11.67;53.47;99431.63;4953379;28;20039;-81
2023/06/03 05:53:03;;;;;;;3.53;2.13;;;;;;;11.66;54.02;99437.22;4979550;28;20033;-81
2023/06/03 05:55:30;;;;;;;1.70;1.58;;;;;;;11.77;54.00;99429.13;4985753;28;20034;-81
2023/06/03 05:57:55;;;;;;;4.82;1.90;;;;;;;11.78;54.65;99427.28;4974824;28;20042;-81
2023/06/03 06:00:21;;;;;;;1.92;1.52;;;;;;;11.61;53.02;99431.75;4987546;28;20042;-81
2023/06/03 06:02:47;;;;;;;3.30;2.15;;;;;;;11.61;54.17;99431.75;4990310;28;20083;-80
2023/06/03 06:05:13;;;;;;;7.35;2.30;;;;;;;11.37;53.52;99423.03;4988727;28;20032;-80
2023/06/03 06:07:39;;;;;;;2.75;1.65;;;;;;;11.57;53.64;99423.41;4989023;28;20116;-80
2023/06/03 06:10:04;;;;;;;4.28;2.03;;;;;;;11.32;53.20;99425.63;4991395;28;20134;-80
2023/06/03 06:12:30;;;;;;;3.00;1.65;;;;;;;11.48;54.59;99430.22;4990233;28;20026;-80
2023/06/03 06:14:55;;;;;;;2.83;1.75;;;;;;;11.48;53.10;99422.19;4976798;28;20061;-81
2023/06/03 06:17:20;;;;;;;4.72;1.83;;;;;;;11.57;52.00;99426.09;4971972;28;20394;-81
2023/06/03 06:19:46;;;;;;;2.55;1.83;;;;;;;11.87;52.80;99432.00;4944719;28;20659;-81
2023/06/03 06:22:12;;;;;;;2.47;2.00;;;;;;;11.77;53.32;99415.75;4990959;28;20034;-81
2023/06/03 06:24:38;;;;;;;2.08;1.85;;;;;;;11.63;51.97;99430.47;4986988;28;20512;-80
2023/06/03 06:27:04;;;;;;;3.38;2.10;;;;;;;12.07;53.14;99417.31;4977213;28;20456;-80
2023/06/03 06:29:30;;;;;;;3.42;2.03;;;;;;;12.39;52.30;99429.03;4989390;28;20034;-81
2023/06/03 06:31:56;;;;;;;3.95;1.80;;;;;;;12.01;52.35;99430.59;4992093;28;20081;-80
2023/06/03 06:34:22;;;;;;;4.88;2.47;;;;;;;11.84;51.27;99415.59;4993591;28;20458;-80
2023/06/03 06:36:52;;;;;;;2.33;1.85;;;;;;;11.75;51.87;99414.41;4971307;28;20058;-80
2023/06/03 06:39:32;;;;;;;5.05;1.83;;;;;;;12.19;51.62;99429.53;4984834;28;20129;-80
2023/06/03 06:42:44;;;;;;;4.63;1.90;;;;;;;12.23;51.09;99441.38;4986516;28;20429;-81
2023/06/03 06:45:21;;;;;;;3.28;1.80;;;;;;;12.02;51.36;99421.53;4980786;28;20042;-81
2023/06/03 06:47:47;;;;;;;2.63;1.70;;;;;;;12.27;50.55;99433.69;4980956;28;20502;-81
2023/06/03 06:50:34;;;;;;;2.15;1.80;;;;;;;12.36;51.26;99434.91;4988085;28;20038;-80
2023/06/03 06:53:00;;;;;;;3.20;1.35;;;;;;;12.61;51.32;99435.25;4979372;28;20470;-81
2023/06/03 06:55:41;;;;;;;2.90;1.67;;;;;;;12.43;50.03;99422.94;4988610;28;20169;-80
2023/06/03 06:58:10;;;;;;;1.67;1.38;;;;;;;12.50;48.73;99430.81;4986309;28;20032;-81
2023/06/03 07:00:36;;;;;;;6.80;1.90;;;;;;;12.72;49.87;99424.44;4989013;28;20026;-81
2023/06/03 07:03:02;;;;;;;3.15;1.67;;;;;;;12.78;50.33;99433.34;4992108;28;20029;-81
2023/06/03 07:05:27;;;;;;;3.03;1.20;;;;;;;12.53;49.47;99424.97;5001323;28;20038;-81
2023/06/03 07:07:52;;;;;;;1.90;1.45;;;;;;;12.72;49.44;99420.94;4990841;28;20693;-80
2023/06/03 07:10:21;;;;;;;3.83;1.60;;;;;;;13.08;48.86;99414.19;4984058;28;20031;-81
2023/06/03 07:12:51;;;;;;;2.25;1.77;;;;;;;12.97;49.53;99415.91;4988189;28;20578;-80
2023/06/03 07:15:20;;;;;;;4.03;1.63;;;;;;;12.99;49.62;99423.69;4986031;28;20040;-80
2023/06/03 07:17:52;;;;;;;4.40;1.55;;;;;;;13.26;47.95;99436.09;4989053;28;20034;-81
2023/06/03 07:20:29;;;;;;;1.88;1.65;;;;;;;13.56;49.02;99427.59;4975386;28;20034;-81
2023/06/03 07:22:54;;;;;;;2.63;1.35;;;;;;;13.39;48.78;99429.53;4996010;28;20027;-81
2023/06/03 07:25:42;;;;;;;3.97;1.50;;;;;;;13.24;50.18;99430.19;4989545;28;20038;-81
2023/06/03 07:28:10;;;;;;;2.35;1.48;;;;;;;13.17;48.64;99423.41;4992042;28;20103;-81
2023/06/03 07:30:38;;;;;;;1.75;1.30;;;;;;;13.37;48.71;99418.25;4988831;28;20026;-80
2023/06/03 07:33:06;;;;;;;2.10;1.50;;;;;;;13.86;50.08;99427.06;4991313;28;20160;-82
2023/06/03 07:35:33;;;;;;;1.70;1.23;;;;;;;14.17;50.25;99434.28;4985386;28;20034;-81
2023/06/03 07:37:59;;;;;;;2.78;1.98;;;;;;;14.54;49.03;99429.75;4953683;28;20128;-82
2023/06/03 07:40:51;;;;;;;2.28;1.40;;;;;;;13.89;50.70;99438.06;4970249;28;20086;-81
2023/06/03 07:43:20;;;;;;;5.47;1.95;;;;;;;13.67;49.54;99433.84;4983601;28;20517;-81
2023/06/03 07:45:47;;;;;;;1.55;1.45;;;;;;;14.06;51.25;99444.16;4983719;28;20544;-81
2023/06/03 07:48:14;;;;;;;1.20;1.10;;;;;;;13.95;49.12;99439.75;4980911;28;20117;-81
2023/06/03 07:50:40;;;;;;;2.88;1.33;;;;;;;13.93;46.94;99444.56;5005585;28;20504;-81
2023/06/03 07:53:05;;;;;;;1.33;1.23;;;;;;;13.96;48.11;99435.19;4999678;28;20022;-82
2023/06/03 07:55:43;;;;;;;1.52;1.38;;;;;;;14.06;48.11;99435.28;4985324;28;20038;-81
2023/06/03 07:58:14;;;;;;;4.45;1.65;;;;;;;14.70;49.71;99442.19;4984955;28;20057;-81
2023/06/03 08:00:43;;;;;;;3.88;1.65;;;;;;;13.92;45.60;99424.16;4991825;28;20037;-81
2023/06/03 08:03:08;;;;;;;2.47;1.63;;;;;;;13.88;47.17;99432.97;4989035;28;20030;-81
2023/06/03 08:05:36;;;;;;;0.95;0.65;;;;;;;14.08;47.43;99439.34;4986954;28;20057;-81
2023/06/03 08:08:09;;;;;;;4.72;1.60;;;;;;;14.30;46.77;99433.06;4981958;28;20573;-81
2023/06/03 08:10:35;;;;;;;3.00;1.30;;;;;;;14.14;46.86;99440.16;4998928;28;20030;-81
2023/06/03 08:13:02;;;;;;;2.90;1.30;;;;;;;14.28;47.48;99430.63;4973490;28;20367;-81
2023/06/03 08:15:32;;;;;;;1.63;1.20;;;;;;;14.21;46.22;99427.34;4987465;28;20034;-81
2023/06/03 08:17:59;;;;;;;4.25;1.30;;;;;;;14.31;46.82;99422.06;4976555;28;20045;-81
2023/06/03 08:20:25;;;;;;;4.50;1.48;;;;;;;14.41;46.71;99424.81;4988087;28;20023;-81
2023/06/03 08:22:52;;;;;;;4.20;1.10;;;;;;;14.45;46.57;99431.31;4974869;28;20046;-81
2023/06/03 08:25:17;;;;;;;3.88;1.48;;;;;;;15.13;47.85;99424.91;4991290;28;20548;-81
2023/06/03 08:27:43;;;;;;;4.13;1.40;;;;;;;14.74;45.58;99423.69;4979921;28;20038;-81
2023/06/03 08:30:12;;;;;;;1.48;1.05;;;;;;;14.72;46.96;99415.84;4973219;28;20030;-81
2023/06/03 08:32:41;;;;;;;2.40;1.38;;;;;;;14.88;47.23;99414.88;4993103;28;20114;-81
2023/06/03 08:35:08;;;;;;;5.22;1.60;;;;;;;14.49;45.76;99420.84;4982113;28;20058;-81
2023/06/03 08:37:33;;;;;;;1.83;1.65;;;;;;;15.14;46.34;99410.38;4986869;28;20036;-81
2023/06/03 08:40:06;;;;;;;4.00;1.13;;;;;;;14.72;45.44;99402.41;4990857;28;20113;-80
2023/06/03 08:42:38;;;;;;;2.50;1.48;;;;;;;15.40;47.05;99414.75;4992579;28;20042;-81
2023/06/03 08:45:06;;;;;;;2.20;1.17;;;;;;;15.72;46.77;99403.84;4987410;28;20031;-81
2023/06/03 08:47:43;;;;;;;1.30;1.20;;;;;;;14.99;44.51;99411.16;4988695;28;20114;-80
2023/06/03 08:50:10;;;;;;;1.48;1.30;;;;;;;15.21;46.29;99399.38;4983826;28;20037;-80
2023/06/03 08:52:38;;;;;;;1.73;1.27;;;;;;;15.77;44.76;99408.41;4979288;28;20049;-80
2023/06/03 08:55:06;;;;;;;6.15;2.00;;;;;;;15.62;44.67;99395.72;4982664;28;20036;-81
2023/06/03 08:57:54;;;;;;;1.15;1.05;;;;;;;16.02;44.66;99403.84;4989604;28;20033;-81
2023/06/03 09:00:26;;;;;;;1.60;1.50;;;;;;;15.95;45.81;99403.28;4979066;28;20157;-81
2023/06/03 09:02:52;;;;;;;5.65;1.30;;;;;;;15.79;44.28;99395.50;4992288;28;20034;-81
2023/06/03 09:05:19;;;;;;;1.73;1.20;;;;;;;15.60;41.95;99389.81;4991425;28;20130;-81
2023/06/03 09:07:48;;;;;;;4.75;1.30;;;;;;;15.85;44.82;99397.91;4987634;28;20501;-81
2023/06/03 09:10:20;;;;;;;2.92;1.35;;;;;;;16.15;43.88;99403.28;4989624;28;20117;-81
2023/06/03 09:12:47;;;;;;;2.55;1.70;;;;;;;15.93;44.77;99381.22;4966966;28;20122;-81
2023/06/03 09:15:16;;;;;;;6.30;1.42;;;;;;;15.96;43.01;99396.03;4991875;28;20053;-81
2023/06/03 09:17:42;;;;;;;4.95;1.50;;;;;;;15.76;42.65;99391.44;4977997;28;20049;-81
2023/06/03 09:20:09;;;;;;;2.15;1.40;;;;;;;16.03;42.99;99381.19;4981444;28;20117;-80
2023/06/03 09:22:36;;;;;;;3.42;1.65;;;;;;;16.53;44.74;99382.22;4974811;28;20045;-81
2023/06/03 09:25:02;;;;;;;2.65;1.27;;;;;;;15.64;42.60;99369.34;4988845;28;20037;-80
2023/06/03 09:27:28;;;;;;;1.52;1.40;;;;;;;15.94;42.82;99373.94;4963794;28;20088;-80
2023/06/03 09:29:54;;;;;;;6.03;1.83;;;;;;;15.56;41.90;99357.25;4989822;28;20034;-81
2023/06/03 09:32:20;;;;;;;2.42;1.40;;;;;;;16.34;42.81;99372.00;4992504;28;20030;-81
2023/06/03 09:34:46;;;;;;;3.97;1.58;;;;;;;16.39;43.22;99377.38;4972856;28;20018;-81
2023/06/03 09:37:12;;;;;;;1.95;1.42;;;;;;;15.93;41.51;99364.25;4988553;28;20141;-81
2023/06/03 09:39:38;;;;;;;3.45;1.63;;;;;;;16.28;42.46;99369.59;4988212;28;20113;-81
2023/06/03 09:42:04;;;;;;;3.97;1.45;;;;;;;16.34;44.16;99360.41;4974169;28;20038;-81
2023/06/03 09:44:46;;;;;;;2.58;1.50;;;;;;;17.25;40.52;99363.59;4971578;28;20030;-82
2023/06/03 09:47:12;;;;;;;4.78;1.90;;;;;;;16.58;40.80;99353.38;4972671;28;20061;-82
2023/06/03 09:49:38;;;;;;;10.68;2.03;;;;;;;16.80;42.12;99358.41;4975152;28;20113;-82
2023/06/03 09:52:07;;;;;;;2.17;1.50;;;;;;;17.06;37.91;99359.91;4985351;28;20359;-82
2023/06/03 09:54:33;;;;;;;8.85;2.03;;;;;;;16.85;40.94;99353.00;4988697;28;20022;-82
2023/06/03 09:57:18;;;;;;;2.03;1.60;;;;;;;17.22;40.99;99369.53;4990807;28;20045;-82
2023/06/03 09:59:45;;;;;;;2.13;1.60;;;;;;;17.89;41.41;99368.81;4987902;28;20149;-82
2023/06/03 10:02:11;;;;;;;4.72;1.70;;;;;;;17.59;40.98;99369.03;4989856;28;20545;-82
2023/06/03 10:04:38;;;;;;;2.35;1.45;;;;;;;18.03;41.23;99375.19;4987267;28;20026;-82
2023/06/03 10:07:14;;;;;;;5.43;1.63;;;;;;;18.56;39.66;99374.16;4988811;28;20030;-82
2023/06/03 10:09:44;;;;;;;1.77;1.58;;;;;;;17.80;38.51;99373.22;4970658;28;20030;-82
2023/06/03 10:12:14;;;;;;;3.25;1.60;;;;;;;17.59;38.06;99366.34;4982766;28;20026;-81
2023/06/03 10:14:47;;;;;;;1.65;1.40;;;;;;;17.44;38.79;99366.41;4980429;28;20022;-82
2023/06/03 10:17:19;;;;;;;1.50;1.35;;;;;;;17.91;38.74;99369.31;4989939;28;20125;-82
2023/06/03 10:19:45;;;;;;;2.55;1.80;;;;;;;17.29;37.88;99342.25;4987059;28;20026;-82
2023/06/03 10:22:15;;;;;;;2.70;1.20;;;;;;;17.39;38.85;99361.88;4988960;28;20644;-82
2023/06/03 10:24:44;;;;;;;4.90;1.38;;;;;;;17.03;39.08;99352.38;4970939;28;20039;-81
2023/06/03 10:27:11;;;;;;;4.45;1.60;;;;;;;17.88;39.72;99348.31;4970641;28;20037;-81
2023/06/03 10:29:36;;;;;;;1.30;1.20;;;;;;;17.83;38.65;99343.75;4984982;28;20023;-81
2023/06/03 10:32:05;;;;;;;1.38;1.17;;;;;;;18.40;40.73;99342.91;4985284;28;20057;-81
2023/06/03 10:34:34;;;;;;;2.22;1.38;;;;;;;18.22;38.62;99348.22;4977995;28;20039;-82
2023/06/03 10:37:01;;;;;;;1.30;1.20;;;;;;;17.66;37.92;99348.75;4998023;28;20058;-81
2023/06/03 10:39:29;;;;;;;1.92;1.00;;;;;;;17.82;36.67;99347.53;4985449;28;20126;-81
2023/06/03 10:42:03;;;;;;;1.25;0.90;;;;;;;18.06;37.26;99344.09;4985424;28;20556;-82
2023/06/03 10:44:29;;;;;;;1.40;1.10;;;;;;;17.78;38.17;99338.38;4988969;28;20122;-81
2023/06/03 10:47:28;;;;;;;3.55;1.50;;;;;;;17.99;40.07;99344.41;4987432;28;20486;-81
2023/06/03 10:50:02;;;;;;;2.22;1.17;;;;;;;18.36;38.09;99354.59;4987122;28;20616;-81
2023/06/03 10:52:48;;;;;;;1.50;1.33;;;;;;;17.80;39.38;99357.81;4983308;28;20664;-81
2023/06/03 10:55:13;;;;;;;1.95;1.13;;;;;;;19.01;39.92;99351.13;4984681;28;20033;-81
2023/06/03 10:57:46;;;;;;;2.15;1.45;;;;;;;20.47;38.61;99346.06;4991268;28;20023;-82
2023/06/03 11:00:12;;;;;;;0.88;0.88;;;;;;;18.95;36.37;99338.78;4987024;28;20038;-81
2023/06/03 11:03:06;;;;;;;3.30;1.20;;;;;;;19.05;38.50;99349.44;4987782;28;20041;-81
2023/06/03 11:05:32;;;;;;;2.30;1.30;;;;;;;18.87;36.31;99352.91;4985966;28;20066;-81
2023/06/03 11:07:58;;;;;;;1.30;1.20;;;;;;;20.37;36.07;99337.34;5002429;28;20057;-82
2023/06/03 11:10:36;;;;;;;3.33;1.25;;;;;;;19.22;35.94;99341.63;4990621;28;20451;-82
2023/06/03 11:13:02;;;;;;;1.60;1.02;;;;;;;18.69;35.47;99332.06;4986131;28;20030;-81
2023/06/03 11:16:02;;;;;;;1.75;1.17;;;;;;;18.97;35.59;99344.69;4985962;28;20045;-81
2023/06/03 11:18:29;;;;;;;3.05;1.38;;;;;;;18.86;36.77;99339.69;4979973;28;20066;-81
2023/06/03 11:20:54;;;;;;;3.15;1.58;;;;;;;19.58;35.95;99324.88;4959741;28;20038;-81
2023/06/03 11:23:41;;;;;;;1.73;1.23;;;;;;;19.20;34.92;99333.00;4972150;28;20034;-81
2023/06/03 11:26:33;;;;;;;1.95;1.30;;;;;;;19.72;37.15;99336.56;4983229;28;20497;-81
2023/06/03 11:28:59;;;;;;;4.80;1.30;;;;;;;19.20;36.07;99329.47;4967390;28;20478;-81
2023/06/03 11:31:27;;;;;;;3.92;1.48;;;;;;;19.20;37.78;99337.59;4997426;28;20046;-81
2023/06/03 11:34:29;;;;;;;5.68;1.58;;;;;;;19.39;35.50;99331.13;4989778;28;20041;-81
2023/06/03 11:36:55;;;;;;;1.50;1.10;;;;;;;19.42;34.96;99327.00;4989355;28;20040;-82
2023/06/03 11:39:22;;;;;;;1.75;1.20;;;;;;;19.95;34.99;99324.78;4987404;28;20022;-83
2023/06/03 11:42:10;;;;;;;1.85;1.48;;;;;;;20.08;34.16;99315.88;4967929;28;20034;-82